Lovejoy, Georgia
Current Conditions -  °F | °C
As of 4:53 PM on Saturday 20 Dec 2014 (Local Time) from KFFC Reporting Station
Haze Haze  
Wind Chill: 51°   Ceiling: 1500
Heat Index: 51°   Visibility: 4mi
Dew Point: 46°   Wind: 3mph
Humidity: 83%   Direction: 360°N
Pressure: 30.17"   Gusts: NA
Location:  33.44°N, 84.31°W
Report Text: KFFC 202153Z AUTO 36003KT 4SM HZ OVC015 11/08 A3017 RMK AO2 SLP218 T01060078
Loading
Personal Weather Stations






























Interactive Weather Map New forecast layout! Learn more

10-Day Weather Forecast

Advertisements
Track Severe Weather on mobile